Time;durP1;ratioP1;P1;durP2;ratioP2;P2;SDS_P1;SDS_P2;PMS_P1;PMS_P2;Temp;Humidity;BMP_temperature;BMP_pressure;BME280_temperature;BME280_humidity;BME280_pressure;Samples;Min_cycle;Max_cycle;Signal;HPM_P1;HPM_P2
2023/05/22 00:01:37;;;;;;;9.50;8.60;;;;;;;18.25;68.27;100771.22;4987001;28;20208;-70
2023/05/22 00:04:03;;;;;;;10.17;9.17;;;;;;;18.21;68.44;100773.34;4986023;28;20225;-72
2023/05/22 00:06:32;;;;;;;10.70;9.23;;;;;;;18.17;68.45;100766.53;5018480;23;20584;-84
2023/05/22 00:08:59;;;;;;;11.53;9.27;;;;;;;18.14;68.30;100763.25;5008835;28;20266;-84
2023/05/22 00:11:27;;;;;;;10.37;9.37;;;;;;;18.07;67.77;100767.53;5013754;28;20237;-84
2023/05/22 00:13:54;;;;;;;11.60;9.83;;;;;;;17.94;67.49;100757.88;5008995;28;20234;-84
2023/05/22 00:16:20;;;;;;;11.00;9.90;;;;;;;17.82;68.09;100755.47;5012067;28;20693;-84
2023/05/22 00:18:48;;;;;;;12.67;10.43;;;;;;;17.74;68.98;100763.38;5015919;28;20215;-84
2023/05/22 00:21:15;;;;;;;12.00;9.80;;;;;;;17.66;70.04;100758.72;5012362;28;20602;-84
2023/05/22 00:23:42;;;;;;;11.70;10.50;;;;;;;17.64;70.47;100758.00;4999817;28;20205;-83
2023/05/22 00:26:15;;;;;;;10.23;9.23;;;;;;;17.61;70.69;100756.41;5016931;28;20228;-85
2023/05/22 00:28:43;;;;;;;11.70;9.57;;;;;;;17.56;70.76;100753.25;5013206;28;20226;-84
2023/05/22 00:31:15;;;;;;;12.63;9.40;;;;;;;17.54;70.78;100755.28;5012434;28;20207;-84
2023/05/22 00:33:42;;;;;;;10.67;9.63;;;;;;;17.52;70.80;100759.09;5010624;28;20228;-84
2023/05/22 00:36:09;;;;;;;11.07;9.60;;;;;;;17.44;70.82;100750.84;5000894;28;20321;-84
2023/05/22 00:38:36;;;;;;;10.17;8.77;;;;;;;17.38;71.18;100749.53;5002703;28;20581;-83
2023/05/22 00:41:05;;;;;;;11.90;10.50;;;;;;;17.34;71.58;100754.38;5006712;28;20208;-83
2023/05/22 00:43:31;;;;;;;10.63;9.13;;;;;;;17.33;72.12;100754.50;5006386;28;20670;-84
2023/05/22 00:46:00;;;;;;;9.60;8.70;;;;;;;17.29;72.07;100745.84;5015802;28;20213;-84
2023/05/22 00:48:26;;;;;;;10.17;9.17;;;;;;;17.30;72.13;100744.88;5011872;28;20207;-84
2023/05/22 00:50:57;;;;;;;9.60;8.60;;;;;;;17.28;72.26;100754.06;5001891;28;20220;-84
2023/05/22 00:53:26;;;;;;;9.97;8.97;;;;;;;17.27;72.36;100745.13;5017576;28;20245;-84
2023/05/22 00:55:53;;;;;;;8.87;8.07;;;;;;;17.24;72.51;100745.41;5025035;28;20214;-84
2023/05/22 00:58:20;;;;;;;10.67;9.10;;;;;;;17.25;72.38;100748.94;5003164;28;20571;-84
2023/05/22 01:00:47;;;;;;;10.47;9.33;;;;;;;17.22;72.69;100755.47;4998725;28;20218;-83
2023/05/22 01:03:16;;;;;;;10.07;8.87;;;;;;;17.22;72.45;100750.06;5004265;28;20670;-84
2023/05/22 01:05:43;;;;;;;12.70;9.50;;;;;;;17.19;72.49;100745.00;5003132;28;20218;-84
2023/05/22 01:08:09;;;;;;;12.67;9.93;;;;;;;17.17;72.48;100752.34;5016643;28;20231;-84
2023/05/22 01:10:38;;;;;;;10.43;9.43;;;;;;;17.14;72.71;100749.94;5003673;28;20196;-83
2023/05/22 01:13:14;;;;;;;11.03;9.93;;;;;;;17.13;72.90;100753.59;5019119;28;20203;-83
2023/05/22 01:15:46;;;;;;;9.93;8.97;;;;;;;17.13;73.15;100748.22;5004247;28;20293;-83
2023/05/22 01:18:23;;;;;;;10.30;9.30;;;;;;;17.12;73.16;100753.75;5012439;28;20583;-83
2023/05/22 01:20:56;;;;;;;10.10;9.10;;;;;;;17.10;73.47;100737.72;5015758;28;20221;-84
2023/05/22 01:23:56;;;;;;;10.23;9.17;;;;;;;17.09;73.49;100737.84;5014582;28;20198;-84
2023/05/22 01:26:38;;;;;;;10.20;9.13;;;;;;;17.06;73.47;100735.44;5016033;28;20250;-84
2023/05/22 01:29:28;;;;;;;11.10;9.70;;;;;;;17.05;73.94;100733.72;5015932;28;20202;-84
2023/05/22 01:31:59;;;;;;;10.33;9.33;;;;;;;17.04;74.14;100729.34;5015845;28;20560;-84
2023/05/22 01:34:28;;;;;;;11.23;9.67;;;;;;;17.02;74.39;100734.03;5006959;28;20232;-84
2023/05/22 01:36:56;;;;;;;10.57;9.57;;;;;;;17.00;74.43;100728.78;5010644;28;20233;-84
2023/05/22 01:39:24;;;;;;;11.77;10.37;;;;;;;16.99;74.67;100727.94;5006930;28;20214;-84
2023/05/22 01:41:51;;;;;;;14.07;10.60;;;;;;;16.98;74.85;100728.91;5021524;28;20203;-84
2023/05/22 01:44:17;;;;;;;11.40;10.23;;;;;;;16.96;74.86;100730.03;5020156;28;20202;-83
2023/05/22 01:46:44;;;;;;;12.53;9.87;;;;;;;16.94;75.05;100721.25;5016467;28;20231;-84
2023/05/22 01:49:11;;;;;;;13.53;9.47;;;;;;;16.92;75.32;100723.22;5017612;28;20209;-85
2023/05/22 01:51:47;;;;;;;11.17;9.50;;;;;;;16.89;75.44;100718.94;5006618;28;20310;-84
2023/05/22 01:54:19;;;;;;;10.50;9.40;;;;;;;16.88;75.61;100717.25;5013924;28;20229;-84
2023/05/22 01:56:53;;;;;;;12.17;9.57;;;;;;;16.87;75.74;100729.00;5013791;28;20228;-84
2023/05/22 01:59:26;;;;;;;11.27;9.53;;;;;;;16.84;75.86;100726.56;5009235;28;20641;-84
2023/05/22 02:01:55;;;;;;;11.13;9.40;;;;;;;16.82;76.20;100725.88;5003533;28;20205;-84
2023/05/22 02:04:23;;;;;;;10.40;8.60;;;;;;;16.81;76.22;100721.50;5015216;28;20203;-84
2023/05/22 02:06:52;;;;;;;10.67;9.57;;;;;;;16.80;76.51;100721.63;5012694;28;20727;-84
2023/05/22 02:09:21;;;;;;;10.33;9.33;;;;;;;16.77;76.60;100716.50;5016235;28;20226;-84
2023/05/22 02:11:49;;;;;;;13.83;9.80;;;;;;;16.73;76.67;100726.69;5016590;28;20655;-84
2023/05/22 02:14:16;;;;;;;11.87;9.60;;;;;;;16.71;76.69;100723.25;5006708;28;20228;-84
2023/05/22 02:16:46;;;;;;;11.63;10.30;;;;;;;16.65;76.66;100713.91;5014430;28;20275;-84
2023/05/22 02:19:14;;;;;;;11.40;9.97;;;;;;;16.61;77.28;100711.59;5012128;28;20212;-84
2023/05/22 02:21:42;;;;;;;10.87;9.77;;;;;;;16.56;77.21;100708.44;5015067;28;20215;-84
2023/05/22 02:24:08;;;;;;;12.23;9.67;;;;;;;16.52;77.55;100705.16;5006107;28;20199;-84
2023/05/22 02:26:35;;;;;;;14.53;10.63;;;;;;;16.50;77.71;100701.75;5009489;28;20232;-84
2023/05/22 02:29:02;;;;;;;11.43;10.17;;;;;;;16.49;78.21;100700.06;5016841;28;20297;-85
2023/05/22 02:31:29;;;;;;;11.13;10.03;;;;;;;16.47;77.97;100698.50;5013270;28;20205;-84
2023/05/22 02:33:56;;;;;;;11.87;9.57;;;;;;;16.43;78.33;100692.53;5014634;28;20233;-84
2023/05/22 02:36:22;;;;;;;13.60;10.47;;;;;;;16.42;78.34;100692.69;5012708;28;20275;-84
2023/05/22 02:38:50;;;;;;;10.67;9.43;;;;;;;16.40;78.50;100687.44;5017117;28;20220;-84
2023/05/22 02:41:18;;;;;;;10.63;9.30;;;;;;;16.34;78.67;100679.88;5006633;28;20217;-84
2023/05/22 02:43:44;;;;;;;10.53;9.53;;;;;;;16.33;78.81;100681.72;5015998;28;20587;-84
2023/05/22 02:46:14;;;;;;;10.90;9.80;;;;;;;16.29;78.51;100679.47;5006724;28;20223;-85
2023/05/22 02:48:41;;;;;;;12.30;9.93;;;;;;;16.24;78.88;100682.53;5014776;28;20321;-85
2023/05/22 02:51:07;;;;;;;11.53;9.50;;;;;;;16.19;78.89;100676.69;5004977;28;20207;-84
2023/05/22 02:53:38;;;;;;;10.77;9.77;;;;;;;16.16;79.04;100689.53;5006369;28;20198;-85
2023/05/22 02:56:07;;;;;;;11.73;10.43;;;;;;;16.12;78.99;100680.06;5016278;28;20216;-85
2023/05/22 02:58:33;;;;;;;10.50;9.60;;;;;;;16.06;79.29;100678.75;5015638;28;20204;-85
2023/05/22 03:01:02;;;;;;;12.63;10.00;;;;;;;16.05;79.42;100681.56;5015598;28;20695;-85
2023/05/22 03:03:30;;;;;;;11.00;9.90;;;;;;;16.01;79.77;100683.66;5020473;28;20209;-84
2023/05/22 03:05:57;;;;;;;10.97;9.70;;;;;;;15.97;80.03;100671.47;5018829;28;20673;-85
2023/05/22 03:08:25;;;;;;;12.03;9.83;;;;;;;15.96;80.22;100678.66;5015684;28;20213;-84
2023/05/22 03:10:51;;;;;;;11.30;10.20;;;;;;;15.96;80.70;100672.44;5008864;28;20209;-84
2023/05/22 03:13:19;;;;;;;10.40;9.40;;;;;;;15.97;80.47;100680.38;5006434;28;20219;-84
2023/05/22 03:15:45;;;;;;;10.90;9.77;;;;;;;15.95;80.85;100682.31;5014172;28;20697;-85
2023/05/22 03:18:12;;;;;;;11.63;9.87;;;;;;;15.98;80.90;100686.59;5020669;28;20237;-84
2023/05/22 03:20:39;;;;;;;10.97;9.83;;;;;;;15.96;81.01;100685.88;5011020;28;20641;-84
2023/05/22 03:23:05;;;;;;;10.80;9.80;;;;;;;15.96;81.01;100683.19;5012541;28;20208;-84
2023/05/22 03:25:32;;;;;;;10.87;9.40;;;;;;;15.96;80.93;100684.03;5007616;28;20201;-84
2023/05/22 03:27:58;;;;;;;10.23;9.33;;;;;;;15.99;80.86;100688.31;5010662;28;20237;-84
2023/05/22 03:30:26;;;;;;;12.17;9.70;;;;;;;16.00;80.67;100683.78;5010612;28;20293;-84
2023/05/22 03:32:53;;;;;;;10.67;9.60;;;;;;;15.99;80.82;100690.97;5011654;28;20217;-85
2023/05/22 03:35:19;;;;;;;12.47;10.27;;;;;;;15.96;80.60;100686.72;5012467;28;20279;-84
2023/05/22 03:37:46;;;;;;;10.33;9.20;;;;;;;15.98;80.65;100687.44;5009962;28;20225;-84
2023/05/22 03:40:13;;;;;;;12.03;10.30;;;;;;;15.98;80.72;100682.06;5011421;28;20298;-85
2023/05/22 03:42:40;;;;;;;10.87;9.80;;;;;;;15.98;80.97;100679.38;5004962;28;20211;-85
2023/05/22 03:45:07;;;;;;;10.80;9.63;;;;;;;15.97;80.82;100677.69;5005693;28;20200;-85
2023/05/22 03:47:35;;;;;;;14.27;10.67;;;;;;;15.94;80.93;100680.63;5005775;28;20216;-85
2023/05/22 03:50:01;;;;;;;11.73;10.13;;;;;;;15.94;80.95;100679.81;5014743;28;20772;-84
2023/05/22 03:52:28;;;;;;;11.43;10.13;;;;;;;15.92;81.01;100679.94;5019042;28;20209;-84
2023/05/22 03:54:54;;;;;;;10.40;9.50;;;;;;;15.89;80.94;100672.13;5009647;28;20242;-85
2023/05/22 03:57:21;;;;;;;14.03;10.23;;;;;;;15.86;81.00;100677.75;5003729;28;20230;-85
2023/05/22 03:59:47;;;;;;;11.43;10.23;;;;;;;15.84;81.45;100679.72;5002795;28;20247;-85
2023/05/22 04:02:15;;;;;;;11.77;9.27;;;;;;;15.83;81.78;100677.16;5005818;28;20216;-84
2023/05/22 04:04:44;;;;;;;11.47;10.00;;;;;;;15.83;81.60;100686.06;5017393;28;20706;-85
2023/05/22 04:07:12;;;;;;;13.40;11.03;;;;;;;15.84;82.10;100681.56;5006135;28;20270;-84
2023/05/22 04:09:39;;;;;;;10.80;9.73;;;;;;;15.83;82.02;100686.06;5015800;28;20217;-84
2023/05/22 04:12:06;;;;;;;11.17;10.00;;;;;;;15.83;81.92;100688.75;5016362;28;20211;-84
2023/05/22 04:14:33;;;;;;;12.20;10.60;;;;;;;15.84;82.39;100685.09;5014282;28;20228;-85
2023/05/22 04:16:59;;;;;;;11.57;10.47;;;;;;;15.87;82.43;100694.72;5015427;28;20744;-84
2023/05/22 04:19:28;;;;;;;11.27;10.27;;;;;;;15.88;82.34;100697.28;5023041;28;20279;-84
2023/05/22 04:21:57;;;;;;;10.63;9.53;;;;;;;15.91;82.46;100685.44;5013004;28;20209;-84
2023/05/22 04:24:24;;;;;;;11.70;9.93;;;;;;;15.93;82.35;100691.53;5002179;28;20575;-83
2023/05/22 04:26:50;;;;;;;10.63;9.53;;;;;;;15.95;82.22;100686.84;5000623;28;20240;-83
2023/05/22 04:29:18;;;;;;;13.03;10.10;;;;;;;15.98;82.27;100686.59;5007012;28;20217;-84
2023/05/22 04:31:45;;;;;;;13.20;10.33;;;;;;;16.00;82.50;100683.78;5007511;28;20277;-84
2023/05/22 04:34:12;;;;;;;11.80;9.93;;;;;;;16.01;82.32;100689.03;5010631;28;20324;-84
2023/05/22 04:36:39;;;;;;;10.40;9.33;;;;;;;16.02;82.10;100693.41;5014309;28;20315;-84
2023/05/22 04:39:07;;;;;;;12.67;9.20;;;;;;;16.03;82.21;100695.13;5011041;28;20201;-84
2023/05/22 04:41:33;;;;;;;11.37;10.00;;;;;;;16.05;82.18;100698.53;5009374;28;20216;-85
2023/05/22 04:44:02;;;;;;;11.63;10.13;;;;;;;16.07;82.31;100701.09;5012302;28;20866;-84
2023/05/22 04:46:29;;;;;;;11.97;10.77;;;;;;;16.08;82.44;100703.66;5015664;28;20337;-84
2023/05/22 04:48:57;;;;;;;13.17;10.47;;;;;;;16.11;82.41;100702.53;5016651;28;20217;-85
2023/05/22 04:51:23;;;;;;;11.57;10.03;;;;;;;16.13;82.45;100700.53;5034279;28;20232;-85
2023/05/22 04:53:50;;;;;;;12.23;10.73;;;;;;;16.15;82.42;100701.28;5018477;28;20281;-85
2023/05/22 04:56:18;;;;;;;11.57;10.30;;;;;;;16.18;82.22;100701.00;5017719;28;20265;-84
2023/05/22 04:58:47;;;;;;;11.43;10.27;;;;;;;16.20;82.12;100699.91;5020810;28;20219;-84
2023/05/22 05:01:15;;;;;;;10.80;9.70;;;;;;;16.23;82.21;100696.09;5025838;28;20217;-85
2023/05/22 05:03:41;;;;;;;11.20;9.90;;;;;;;16.25;82.17;100695.00;5032471;28;20217;-84
2023/05/22 05:06:08;;;;;;;10.60;9.53;;;;;;;16.28;82.15;100689.34;5035096;28;20684;-84
2023/05/22 05:08:35;;;;;;;11.43;10.07;;;;;;;16.31;82.15;100686.38;5031137;28;20214;-85
2023/05/22 05:11:02;;;;;;;11.17;9.97;;;;;;;16.33;82.33;100676.34;5021466;28;20231;-84
2023/05/22 05:13:30;;;;;;;10.20;9.20;;;;;;;16.35;82.41;100670.84;5024240;28;20213;-85
2023/05/22 05:15:57;;;;;;;11.03;9.93;;;;;;;16.42;82.62;100671.16;5027143;28;20224;-84
2023/05/22 05:18:24;;;;;;;10.63;9.53;;;;;;;16.45;82.97;100674.44;5009010;28;20488;-84
2023/05/22 05:20:50;;;;;;;10.33;9.33;;;;;;;16.48;83.18;100676.84;5028187;28;20206;-84
2023/05/22 05:23:17;;;;;;;11.60;9.20;;;;;;;16.53;83.22;100671.91;5020913;28;20214;-85
2023/05/22 05:25:44;;;;;;;9.40;8.50;;;;;;;16.56;83.21;100673.50;5017619;28;20218;-85
2023/05/22 05:28:11;;;;;;;11.03;9.20;;;;;;;16.59;82.96;100667.84;5013975;28;20229;-83
2023/05/22 05:30:40;;;;;;;11.43;9.33;;;;;;;16.61;82.90;100673.94;5016543;28;20214;-84
2023/05/22 05:33:07;;;;;;;11.57;9.83;;;;;;;16.63;82.54;100670.19;5009420;28;20675;-84
2023/05/22 05:35:33;;;;;;;9.90;8.87;;;;;;;16.66;82.89;100677.94;5017452;28;20656;-83
2023/05/22 05:38:00;;;;;;;10.50;9.20;;;;;;;16.69;82.94;100676.81;5024650;28;20283;-85
2023/05/22 05:40:26;;;;;;;11.67;8.97;;;;;;;16.73;83.13;100675.56;5027406;28;20648;-85
2023/05/22 05:42:53;;;;;;;10.23;9.07;;;;;;;16.79;83.41;100674.19;5023108;28;20206;-84
2023/05/22 05:45:20;;;;;;;10.47;9.27;;;;;;;16.85;83.40;100679.84;5017929;28;20298;-84
2023/05/22 05:47:48;;;;;;;10.03;8.93;;;;;;;16.90;83.59;100674.06;5019116;28;20290;-85
2023/05/22 05:50:15;;;;;;;13.23;9.10;;;;;;;16.96;83.73;100674.38;5019132;28;20285;-83
2023/05/22 05:52:41;;;;;;;10.07;9.17;;;;;;;17.01;83.46;100671.28;5018875;28;20239;-83
2023/05/22 05:55:09;;;;;;;10.17;9.17;;;;;;;17.05;83.42;100679.91;5008322;28;20227;-83
2023/05/22 05:57:35;;;;;;;10.20;8.90;;;;;;;17.09;83.38;100674.13;5001597;28;20230;-84
2023/05/22 06:00:03;;;;;;;9.43;8.50;;;;;;;17.13;83.35;100678.25;5014629;28;20205;-84
2023/05/22 06:02:30;;;;;;;10.23;9.23;;;;;;;17.19;83.40;100672.31;5009865;28;20261;-83
2023/05/22 06:04:58;;;;;;;10.27;9.27;;;;;;;17.28;83.67;100681.38;5013042;28;20753;-85
2023/05/22 06:07:24;;;;;;;9.77;8.83;;;;;;;17.35;83.88;100678.00;5017865;28;20248;-83
2023/05/22 06:09:51;;;;;;;12.43;9.07;;;;;;;17.45;83.71;100683.38;5011681;28;20672;-83
2023/05/22 06:12:17;;;;;;;9.17;8.37;;;;;;;17.51;83.48;100679.28;5017690;28;20241;-84
2023/05/22 06:14:44;;;;;;;9.50;8.47;;;;;;;17.64;83.57;100685.28;5013170;28;20290;-83
2023/05/22 06:17:11;;;;;;;9.37;8.57;;;;;;;17.74;82.96;100677.19;5007290;28;21089;-84
2023/05/22 06:19:37;;;;;;;9.63;8.33;;;;;;;17.85;81.70;100675.22;5031889;28;20856;-84
2023/05/22 06:22:05;;;;;;;9.87;8.87;;;;;;;17.94;81.17;100676.19;5013449;28;20211;-84
2023/05/22 06:24:34;;;;;;;9.50;8.67;;;;;;;18.03;81.04;100670.78;5015708;28;20197;-84
2023/05/22 06:27:01;;;;;;;9.23;8.37;;;;;;;18.12;80.00;100677.13;5015806;28;20718;-83
2023/05/22 06:29:27;;;;;;;9.23;8.17;;;;;;;18.18;79.02;100678.41;5020035;28;20220;-83
2023/05/22 06:31:54;;;;;;;9.30;8.50;;;;;;;18.26;78.15;100681.25;5017386;28;20232;-84
2023/05/22 06:34:21;;;;;;;9.80;8.10;;;;;;;18.29;77.36;100675.53;5007464;28;20224;-84
2023/05/22 06:36:49;;;;;;;9.83;8.90;;;;;;;18.37;76.82;100676.53;5016265;28;20240;-83
2023/05/22 06:39:17;;;;;;;12.07;8.70;;;;;;;18.49;77.11;100679.03;5018705;28;20201;-83
2023/05/22 06:41:43;;;;;;;9.33;8.43;;;;;;;18.60;76.96;100678.91;5017359;28;20600;-83
2023/05/22 06:44:11;;;;;;;9.60;8.80;;;;;;;18.78;76.99;100681.66;5009966;28;20217;-84
2023/05/22 06:46:37;;;;;;;11.30;8.60;;;;;;;18.96;77.38;100682.56;5013428;28;20243;-83
2023/05/22 06:49:04;;;;;;;9.20;7.83;;;;;;;19.11;75.95;100674.81;5011329;28;20215;-84
2023/05/22 06:51:31;;;;;;;9.63;7.67;;;;;;;19.24;74.21;100680.69;5006691;28;20814;-84
2023/05/22 06:53:57;;;;;;;11.27;8.10;;;;;;;19.32;73.04;100678.09;5011157;28;20212;-84
2023/05/22 06:56:25;;;;;;;8.70;7.90;;;;;;;19.42;72.24;100692.34;5011319;28;20232;-84
2023/05/22 06:58:52;;;;;;;9.23;8.33;;;;;;;19.51;72.69;100680.69;5004216;28;20207;-85
2023/05/22 07:01:18;;;;;;;8.90;7.30;;;;;;;19.66;72.91;100689.94;5020677;28;20590;-86
2023/05/22 07:03:45;;;;;;;8.63;7.93;;;;;;;19.78;72.17;100685.13;5006208;28;20210;-84
2023/05/22 07:06:12;;;;;;;8.83;8.03;;;;;;;19.94;72.40;100687.13;5024515;28;20226;-83
2023/05/22 07:08:38;;;;;;;10.07;7.97;;;;;;;20.07;71.38;100680.28;5005534;28;20232;-85
2023/05/22 07:11:06;;;;;;;8.73;7.77;;;;;;;20.22;70.02;100682.44;5009206;28;20205;-85
2023/05/22 07:13:35;;;;;;;9.30;7.60;;;;;;;20.31;69.34;100690.44;5003509;28;20692;-85
2023/05/22 07:16:01;;;;;;;8.53;7.73;;;;;;;20.39;68.82;100682.44;5009499;28;20259;-85
2023/05/22 07:18:28;;;;;;;7.97;7.27;;;;;;;20.49;69.16;100687.72;5011198;28;20196;-85
2023/05/22 07:20:54;;;;;;;9.67;8.20;;;;;;;20.59;68.72;100688.47;5014491;28;20572;-85
2023/05/22 07:23:21;;;;;;;8.47;7.70;;;;;;;20.69;68.44;100685.63;5007158;28;20229;-85
2023/05/22 07:25:47;;;;;;;8.37;7.57;;;;;;;20.79;68.06;100681.78;5005488;28;20215;-85
2023/05/22 07:28:14;;;;;;;9.53;8.60;;;;;;;20.85;67.61;100683.00;4999706;28;20232;-86
2023/05/22 07:30:42;;;;;;;11.43;7.88;;;;;;;20.96;67.59;100680.00;5017583;28;20300;-86
2023/05/22 07:33:09;;;;;;;8.07;7.38;;;;;;;21.06;66.55;100679.88;5009930;28;20290;-86
2023/05/22 07:35:35;;;;;;;8.25;7.45;;;;;;;21.15;66.48;100674.31;5010075;28;20698;-85
2023/05/22 07:38:02;;;;;;;8.57;7.78;;;;;;;21.30;66.84;100674.56;5007472;28;20726;-85
2023/05/22 07:40:29;;;;;;;9.63;7.30;;;;;;;21.43;65.58;100672.22;5001513;28;20203;-86
2023/05/22 07:42:55;;;;;;;8.40;7.57;;;;;;;21.54;65.27;100664.75;5016723;28;20202;-85
2023/05/22 07:45:22;;;;;;;8.40;7.60;;;;;;;21.64;65.09;100668.19;4996380;28;20199;-85
2023/05/22 07:47:50;;;;;;;8.30;7.50;;;;;;;21.68;64.49;100667.66;5001053;28;20250;-85
2023/05/22 07:50:16;;;;;;;8.65;7.82;;;;;;;21.75;64.35;100668.69;5010370;28;20819;-85
2023/05/22 07:52:44;;;;;;;9.30;7.65;;;;;;;21.83;64.08;100673.28;5016569;28;20211;-85
2023/05/22 07:55:10;;;;;;;8.30;7.50;;;;;;;21.89;63.67;100675.28;5015908;28;20199;-86
2023/05/22 07:57:38;;;;;;;8.32;7.53;;;;;;;21.97;63.91;100669.88;5001264;28;20237;-85
2023/05/22 08:00:15;;;;;;;9.80;7.20;;;;;;;22.08;64.65;100656.00;5005966;28;20222;-85
2023/05/22 08:02:42;;;;;;;8.50;6.78;;;;;;;22.23;64.28;100664.28;5002317;28;20202;-85
2023/05/22 08:05:10;;;;;;;7.68;6.97;;;;;;;22.38;63.86;100662.56;5004673;28;20230;-85
2023/05/22 08:07:37;;;;;;;8.05;7.25;;;;;;;22.51;63.22;100668.31;5008370;28;20248;-85
2023/05/22 08:10:06;;;;;;;7.65;6.95;;;;;;;22.61;62.19;100661.81;5011978;28;20218;-85
2023/05/22 08:12:33;;;;;;;7.97;7.28;;;;;;;22.67;61.60;100669.25;5014240;28;20217;-85
2023/05/22 08:14:59;;;;;;;8.43;7.57;;;;;;;22.70;61.50;100669.78;5007904;28;20207;-85
2023/05/22 08:17:26;;;;;;;8.35;7.43;;;;;;;22.73;60.87;100672.13;5005094;28;20226;-86
2023/05/22 08:19:52;;;;;;;9.40;7.38;;;;;;;22.79;60.34;100663.31;5006096;28;20229;-85
2023/05/22 08:22:20;;;;;;;9.68;6.90;;;;;;;22.87;60.13;100669.72;5010726;28;20203;-85
2023/05/22 08:24:46;;;;;;;8.07;7.28;;;;;;;23.00;60.56;100664.56;5008685;28;20572;-85
2023/05/22 08:27:13;;;;;;;7.60;6.90;;;;;;;23.13;60.03;100662.13;5013703;28;20589;-85
2023/05/22 08:29:39;;;;;;;8.32;7.60;;;;;;;23.20;59.89;100663.97;5022337;28;20600;-85
2023/05/22 08:32:07;;;;;;;7.82;6.85;;;;;;;23.28;58.61;100654.09;5013173;28;20203;-84
2023/05/22 08:34:34;;;;;;;9.30;7.30;;;;;;;23.33;58.54;100662.53;5026154;28;20210;-85
2023/05/22 08:37:00;;;;;;;8.00;7.20;;;;;;;23.41;59.01;100648.88;5016203;28;20222;-85
2023/05/22 08:39:30;;;;;;;7.88;7.07;;;;;;;23.48;59.23;100650.69;5019915;28;20204;-86
2023/05/22 08:41:56;;;;;;;7.80;7.10;;;;;;;23.55;59.09;100650.84;5014418;28;20587;-85
2023/05/22 08:44:23;;;;;;;7.38;6.75;;;;;;;23.61;59.33;100644.69;5014172;28;20206;-86
2023/05/22 08:46:52;;;;;;;8.07;6.70;;;;;;;23.63;59.76;100642.66;5011937;28;20588;-85
2023/05/22 08:49:21;;;;;;;7.70;7.00;;;;;;;23.69;60.23;100641.06;5011523;28;20210;-86
2023/05/22 08:51:52;;;;;;;8.75;7.38;;;;;;;23.69;60.00;100636.47;5018095;28;20547;-86
2023/05/22 08:54:21;;;;;;;8.10;7.40;;;;;;;23.69;60.59;100641.06;5009648;28;20289;-86
2023/05/22 08:56:51;;;;;;;7.63;7.03;;;;;;;23.65;59.75;100637.00;5014517;28;20226;-86
2023/05/22 08:59:19;;;;;;;7.80;7.03;;;;;;;23.58;59.42;100636.06;5020434;28;20789;-85
2023/05/22 09:01:46;;;;;;;7.78;7.05;;;;;;;23.51;59.96;100630.47;5012356;28;20610;-84
2023/05/22 09:04:13;;;;;;;8.10;7.35;;;;;;;23.48;60.43;100634.38;5022258;28;20636;-84
2023/05/22 09:06:40;;;;;;;10.55;7.75;;;;;;;23.52;61.38;100627.59;5018056;28;20325;-85
2023/05/22 09:09:06;;;;;;;8.02;7.25;;;;;;;23.60;61.33;100631.28;5022637;28;20564;-85
2023/05/22 09:11:33;;;;;;;9.38;7.40;;;;;;;23.68;61.28;100628.50;5005023;28;20205;-86
2023/05/22 09:14:08;;;;;;;7.78;7.07;;;;;;;23.80;60.37;100637.94;5010116;28;20207;-85
2023/05/22 09:16:44;;;;;;;7.45;6.80;;;;;;;23.94;59.79;100631.66;5012170;28;20238;-85
2023/05/22 09:19:11;;;;;;;7.50;6.80;;;;;;;24.07;59.68;100631.03;5009635;28;20273;-84
2023/05/22 09:21:38;;;;;;;8.60;7.57;;;;;;;24.21;58.70;100631.03;5016154;28;20208;-84
2023/05/22 09:24:09;;;;;;;7.15;6.53;;;;;;;24.32;58.49;100626.22;5006549;28;20255;-85
2023/05/22 09:26:35;;;;;;;7.78;7.07;;;;;;;24.38;58.13;100626.31;5011891;28;20287;-85
2023/05/22 09:29:02;;;;;;;7.50;6.85;;;;;;;24.49;57.37;100622.28;5021572;28;20205;-84
2023/05/22 09:31:30;;;;;;;9.15;7.53;;;;;;;24.61;57.58;100622.66;5014875;28;20256;-84
2023/05/22 09:33:58;;;;;;;7.40;6.80;;;;;;;24.74;57.65;100625.53;5019033;28;20221;-85
2023/05/22 09:36:31;;;;;;;8.88;6.78;;;;;;;24.86;56.70;100622.16;5004660;28;20238;-85
2023/05/22 09:39:00;;;;;;;8.23;7.43;;;;;;;24.98;56.62;100624.41;5012181;28;20201;-85
2023/05/22 09:41:29;;;;;;;8.20;7.40;;;;;;;25.10;56.11;100614.69;5011661;28;20211;-85
2023/05/22 09:43:55;;;;;;;7.57;6.95;;;;;;;25.13;55.53;100619.75;5007172;28;20290;-85
2023/05/22 09:46:22;;;;;;;7.50;6.88;;;;;;;25.17;55.61;100619.19;5023369;28;20694;-84
2023/05/22 09:48:52;;;;;;;7.30;6.60;;;;;;;25.23;56.07;100621.16;5015279;28;20556;-85
2023/05/22 09:51:22;;;;;;;7.03;6.40;;;;;;;25.27;55.19;100614.25;4999214;28;20195;-85
2023/05/22 09:53:50;;;;;;;7.97;7.18;;;;;;;25.34;54.93;100610.78;5004500;28;20207;-85
2023/05/22 09:56:18;;;;;;;7.03;6.32;;;;;;;25.42;55.08;100611.50;5015842;28;20230;-84
2023/05/22 09:58:46;;;;;;;7.25;6.65;;;;;;;25.51;55.50;100612.19;5010850;28;20203;-85
2023/05/22 10:01:15;;;;;;;7.43;6.82;;;;;;;25.60;55.05;100617.34;5029148;28;20264;-84
2023/05/22 10:03:43;;;;;;;7.25;6.65;;;;;;;25.67;55.10;100608.38;5003942;28;20672;-84
2023/05/22 10:06:12;;;;;;;7.93;7.07;;;;;;;25.72;54.67;100608.66;5014726;28;20214;-84
2023/05/22 10:08:43;;;;;;;7.65;6.93;;;;;;;25.80;54.45;100614.78;5015771;28;20229;-85
2023/05/22 10:11:11;;;;;;;7.55;6.95;;;;;;;25.85;53.89;100606.03;5009156;28;20192;-85
2023/05/22 10:13:38;;;;;;;8.80;7.07;;;;;;;25.84;53.49;100609.78;5012356;28;20958;-85
2023/05/22 10:16:06;;;;;;;7.47;6.68;;;;;;;25.85;54.26;100604.16;5013400;28;20234;-85
2023/05/22 10:18:33;;;;;;;7.35;6.75;;;;;;;25.90;54.59;100609.88;5015347;28;20264;-85
2023/05/22 10:21:01;;;;;;;7.97;6.70;;;;;;;25.91;54.15;100603.38;5025787;28;20207;-85
2023/05/22 10:23:30;;;;;;;7.28;6.68;;;;;;;25.89;53.97;100608.19;5014549;28;20219;-85
2023/05/22 10:25:57;;;;;;;7.53;6.93;;;;;;;25.92;53.35;100604.22;5022518;28;20205;-85
2023/05/22 10:28:27;;;;;;;7.38;6.68;;;;;;;25.94;53.25;100594.78;5021557;28;20206;-84
2023/05/22 10:31:00;;;;;;;7.97;6.70;;;;;;;26.05;53.12;100595.28;5023033;28;20211;-85
2023/05/22 10:33:31;;;;;;;8.05;7.25;;;;;;;26.11;52.46;100594.50;5023836;28;20241;-85
2023/05/22 10:36:03;;;;;;;7.38;6.57;;;;;;;26.20;52.77;100594.13;5013132;28;20203;-84
2023/05/22 10:39:00;;;;;;;7.82;6.95;;;;;;;26.30;52.54;100585.63;5013916;28;20206;-85
2023/05/22 10:41:27;;;;;;;8.85;6.97;;;;;;;26.31;51.43;100589.19;5013220;28;20190;-85
2023/05/22 10:43:56;;;;;;;12.75;7.15;;;;;;;26.27;51.60;100578.63;5012942;28;20199;-85
2023/05/22 10:46:23;;;;;;;7.63;6.85;;;;;;;26.27;51.60;100581.38;5014405;28;20235;-84
2023/05/22 10:48:54;;;;;;;7.70;6.93;;;;;;;26.32;52.18;100572.59;5013100;28;20577;-85
2023/05/22 10:51:22;;;;;;;10.65;6.90;;;;;;;26.37;51.32;100574.72;5025051;28;20971;-85
2023/05/22 10:53:54;;;;;;;7.85;7.05;;;;;;;26.42;51.59;100575.81;5017691;28;20210;-86
2023/05/22 10:56:21;;;;;;;7.40;6.80;;;;;;;26.51;51.49;100573.75;5020981;28;20237;-85
2023/05/22 10:58:56;;;;;;;7.10;6.40;;;;;;;26.59;51.30;100579.88;5010733;28;20213;-85
2023/05/22 11:01:25;;;;;;;7.25;6.55;;;;;;;26.68;50.97;100577.84;5000844;28;20206;-86
2023/05/22 11:03:53;;;;;;;7.35;6.65;;;;;;;26.79;50.46;100573.66;5014832;28;20207;-85
2023/05/22 11:06:34;;;;;;;7.35;6.75;;;;;;;26.90;50.48;100571.16;5021168;28;20230;-85
2023/05/22 11:09:31;;;;;;;6.78;6.10;;;;;;;26.99;50.26;100571.88;5033433;28;20300;-85
2023/05/22 11:12:18;;;;;;;9.65;7.03;;;;;;;27.09;49.43;100579.66;5015599;28;20203;-85
2023/05/22 11:14:55;;;;;;;7.53;6.82;;;;;;;27.16;50.10;100575.06;5006719;28;20870;-85
2023/05/22 11:17:23;;;;;;;7.70;7.00;;;;;;;27.27;49.77;100568.97;5011481;28;20218;-86
2023/05/22 11:19:58;;;;;;;7.97;7.22;;;;;;;27.35;49.22;100557.84;5013124;28;20218;-85
2023/05/22 11:22:30;;;;;;;7.53;6.88;;;;;;;27.40;49.04;100566.28;4997718;28;20195;-85
2023/05/22 11:24:58;;;;;;;7.60;6.78;;;;;;;27.44;48.26;100559.31;5005856;28;20207;-86